Airfield :
LOGIN :

Register | Disclaimer

   EN    FR    IT 

 










Legend :    VFR   Marginal VFR   IFR   Intensive IFR   Very Intensive IFR
Visi :
Ceiling :
>= 8 km
>= 3000ft
5 to 8 km
1000 to 3000 ft
1500m to 5 km
500 to 1000 ft
800 to 1500m
200 to 500 ft
< 800m
< 200 ft
Symbols :   Thunderstorms  Fog  Heavy snow  Heavy precipitations  Wind > 20 kt
SIGMETs :     Misc.  Thunderstorms  Icing  Turbulence  Mountain Waves  Volcanic Ashes







- Airport Elevation : 37 ft


EHVL - Vlieland Heliport

CURRENT METAR :
  • 171455Z AUTO 25018KT 9999 FEW330 20/15 Q1015 BLU

EXPIRED METARs :
  • 171435Z AUTO 25018KT 9999 FEW012 20/15 Q1015 BLU
  • 171425Z AUTO 25018KT 9999 SCT010 BKN014 20/15 Q1015 GRN
  • 171413Z AUTO 25017KT 9999 FEW010 SCT013 21/15 Q1015 GRN
  • 171407Z AUTO 25018KT 9999 FEW010 SCT015 BKN020 21/16 Q1015 WHT
  • 171355Z AUTO 26018KT 9999 SCT011 BKN013 BKN025 20/15 Q1015 GRN
  • 171330Z AUTO 25018KT 9999 BKN011 BKN013 21/15 Q1014 GRN
  • 171325Z AUTO 25018KT 9999 FEW010 21/15 Q1014 BLU
  • 171255Z AUTO 25017KT 9999 FEW010 21/16 Q1014 BLU
  • 171231Z AUTO 25017KT 9999 FEW008 20/16 Q1014 BLU
  • 171225Z AUTO 25018KT 9999 BKN007 BKN009 20/16 Q1014 GRN

Expired Forecast.
No reported NOTAMs for that airfield.



MET'MAP, your aeronautical weather chart ! - Copyright ORBIFLY December 2007 - Disclaimer

ORBIFLY MET'MAP TEAM :

Programming & Development : Alexandra Zaïnal
Concept & Development : Baudouin d'Aumeries
Co-Development & Prog : Marc-Olivier Méhu
Technical & hardware support : Manuel Goepfert

Contact : metmap@orbifly.com




SOURCES & CREDITS :

   NOAA